Aviation Digital Data Service (ADDS)

Output produced by METARs form (2310 UTC 15 August 2018)
found at http://www.aviationweather.gov/adds/metars/
 
ENAT 152250Z AUTO 14004KT 090V240 9999 SCT055/// 11/07 Q1011 RMK WIND 700FT 18015KT
ENAN 152250Z AUTO 16005KT 9999 BKN068/// OVC084/// 09/07 Q1007
TAF ENAN 1518/1618 09008KT 9999 FEW030 BKN060 
     BECMG 1520/1522 18010KT
       
ENML 152250Z AUTO 09013KT 9999NDV -SHRA FEW044/// BKN080/// 15/13 Q1001
ENNA 152250Z AUTO 17005KT 9999 -RA OVC098/// 06/06 Q1012 RMK WIND 1800FT 20015KT
TAF ENNA 1518/1618 35010KT 9999 SCT040 
     BECMG 1519/1521 18008KT 
     TEMPO 1609/1618 18020KT
       
ENDU 152250Z AUTO 00000KT 9999 NCD 05/05 Q1008 RMK WIND 1100FT 12005KT WIND 2200FT 14012KT
TAF ENDU 1518/1618 12005KT 9999 FEW025 BKN050
       
ENBS 152050Z 23003KT CAVOK 05/04 Q1013
ENBR 152250Z 18019KT 9999 FEW005 BKN011 17/15 Q1006 RMK WIND 1200FT 18025G37KT
TAF ENBR 1518/1618 16012KT 6000 -RA BKN015 
     BECMG 1518/1520 18018G30KT 
     TEMPO 1518/1608 2000 RADZ BR OVC004 
     BECMG 1603/1605 19008KT 
     TEMPO 1608/1618 4000 SHRA BKN012CB
       
ENBO 152250Z 08010KT 9999 -SHRA FEW010 SCT020 BKN040 14/12 Q1007
TAF ENBO 1518/1618 09008KT 9999 FEW040 BKN060 
     TEMPO 1518/1601 SHRA BKN040CB 
     PROB40 
     TEMPO 1612/1618 SHRA BKN030CB
       
ENBL 152050Z 20004KT 130V230 9999 RA FEW011 SCT020 BKN030 13/12 Q1004
ENBN 152250Z AUTO VRB02KT 9999NDV OVC084/// 14/13 Q1006
ENEV 152250Z AUTO 00000KT 9999 SG OVC068/// 12/10 Q1007 RMK WIND 1400FT 14011KT
ENFL 152250Z AUTO 19025KT 2700NDV RA FEW002/// BKN014/// OVC024/// 16/15 Q1002
ENHK 151920Z 10010KT CAVOK 13/06 Q1010
ENHD 152250Z AUTO 17016KT 9999 FEW009/// SCT013/// 18/16 Q1007
ENKR 152250Z AUTO 16007KT 9999 OVC200/// 06/05 Q1014 RMK WIND 731FT 17011KT
TAF ENKR 152000Z 1521/1606 16005KT 9999 FEW050
       
ENMS 151920Z 26002KT 9999 VCFG -RA FEW007 SCT030 BKN050 14/13 Q1007 RMK WIND 412FT VRB02KT
ENCN 152250Z AUTO 22009KT 180V240 9999 BKN011/// BKN014/// OVC025/// 18/17 Q1012
ENKB 152250Z AUTO 08004KT 9999 -RA SCT061/// 14/12 Q1002 RMK WIND 745FT 10012KT
ENOL 152250Z 12004KT CAVOK 13/12 Q1004
TAF ENOL 1518/1618 12008KT 9999 -RA FEW040 BKN070 
     PROB30 
     TEMPO 1610/1614 4000 -RADZ BKN014
       
ENGM 152250Z 17010KT 9999 BKN012 16/14 Q1010
TAF ENGM 1518/1618 19010KT 9999 BKN020 
     BECMG 1521/1523 BKN012 
     TEMPO 1601/1608 4000 -DZ BR BKN008 
     TEMPO 1608/1618 20015G25KT BKN015
       
ENRO 152250Z AUTO VRB03KT 9999NDV BKN026/// OVC039/// 13/10 Q1008
ENRY 152250Z 20011KT 9999 FEW010 SCT013 BKN049 18/15 Q1012
TAF ENRY 1518/1618 19010KT 9999 BKN012 
     TEMPO 1600/1612 4000 -DZ BR BKN008 
     BECMG 1609/1611 20020KT 
     TEMPO 1609/1618 20020G30KT
       
ENSO 151720Z 15014KT 9999 -RADZ SCT007TCU BKN016 16/15 Q1007
ENSG 151850Z 07003KT 9999 FEW040 BKN080 13/13 Q1007 RMK WIND 3806FT 16018KT
ENZV 152250Z 16012KT 9999 -RA SCT011 OVC016 17/16 Q1008
TAF ENZV 1518/1618 19010KT 9000 FEW007 BKN014 
     TEMPO 1518/1618 19015G25KT 2000 RADZ BR BKN005
       
ENST 151820Z 16011KT 9999 -RA FEW030 SCT045 BKN060 14/10 Q1006 RMK WIND 300FT 16015KT
ENSS 151850Z 12003KT 9999 FEW030 07/05 Q1014 RMK WIND 500FT 11005KT
ENTO 152250Z AUTO 20012KT 9999 BKN005/// OVC009/// 17/17 Q1011 REDZ
TAF AMD ENTO 1520/1618 19010KT 9999 BKN020 
     BECMG 1521/1523 BKN010 
     TEMPO 1520/1606 4000 -DZ BR BKN006 
     BECMG 1609/1611 20020KT 
     TEMPO 1610/1618 20020G30KT
       
ENTC 152250Z VRB02KT 9999 FEW062 08/06 Q1009 RMK WIND 2600FT 17014KT
TAF ENTC 1518/1618 03008KT 9999 FEW050
       
ENVA 152250Z 16010KT CAVOK 18/11 Q1004 RMK WIND 670FT 17016KT
TAF ENVA 1518/1618 VRB05KT 9999 FEW050 
     BECMG 1520/1522 15010KT 
     TEMPO 1522/1612 18015G25KT 
     TEMPO 1612/1618 RA BKN014
       
ENAL 152250Z AUTO VRB02KT 9999 -RA VV017 15/14 Q1001